Time;durP1;ratioP1;P1;durP2;ratioP2;P2;SDS_P1;SDS_P2;PMS_P1;PMS_P2;Temp;Humidity;BMP_temperature;BMP_pressure;BME280_temperature;BME280_humidity;BME280_pressure;Samples;Min_cycle;Max_cycle;Signal;HPM_P1;HPM_P2
2022/05/17 00:02:03;;;;;;;3.03;1.30;;;19.70;74.00;20.10;96871.00;;;;5075930;28;20196;-86
2022/05/17 00:04:30;;;;;;;2.07;1.37;;;19.60;74.00;20.10;96869.00;;;;5075842;28;20220;-86
2022/05/17 00:06:59;;;;;;;1.30;1.20;;;19.70;74.20;20.10;96871.00;;;;5075233;28;20672;-87
2022/05/17 00:09:26;;;;;;;2.43;1.20;;;19.70;74.40;20.10;96867.00;;;;5075533;28;20219;-86
2022/05/17 00:11:53;;;;;;;2.00;1.20;;;19.70;74.30;20.10;96868.00;;;;5075540;28;20200;-86
2022/05/17 00:14:21;;;;;;;1.93;1.20;;;19.60;74.30;20.10;96872.00;;;;5075945;28;20609;-86
2022/05/17 00:16:48;;;;;;;1.43;1.10;;;19.60;74.30;20.10;96871.00;;;;5075360;28;20658;-86
2022/05/17 00:19:18;;;;;;;2.27;1.30;;;19.60;74.40;20.10;96860.00;;;;5070077;28;20698;-87
2022/05/17 00:21:45;;;;;;;1.77;1.33;;;19.70;74.50;20.10;96865.00;;;;5056032;28;20204;-86
2022/05/17 00:24:15;;;;;;;2.03;1.30;;;19.70;74.40;20.10;96867.00;;;;5056018;28;20216;-85
2022/05/17 00:26:43;;;;;;;2.20;1.70;;;19.60;74.40;20.10;96867.00;;;;5075726;28;20291;-86
2022/05/17 00:29:10;;;;;;;2.37;1.53;;;19.70;74.40;20.10;96860.00;;;;5074683;28;20224;-86
2022/05/17 00:31:38;;;;;;;1.60;1.50;;;19.60;74.40;20.10;96863.00;;;;5075327;28;20203;-86
2022/05/17 00:34:06;;;;;;;1.80;1.60;;;19.70;74.40;20.10;96861.00;;;;5075510;28;20689;-86
2022/05/17 00:36:33;;;;;;;1.30;1.20;;;19.60;75.10;20.10;96869.00;;;;5075250;28;20200;-86
2022/05/17 00:39:01;;;;;;;2.97;1.50;;;19.60;74.40;20.10;96866.00;;;;5074459;28;20204;-85
2022/05/17 00:41:30;;;;;;;2.23;1.40;;;19.60;74.40;20.10;96866.00;;;;5075347;28;20235;-86
2022/05/17 00:46:49;;;;;;;1.67;1.20;;;19.60;74.50;20.10;96861.00;;;;5075255;28;20195;-86
2022/05/17 00:49:26;;;;;;;2.57;1.27;;;19.60;74.50;20.10;96869.00;;;;5073978;28;20226;-86
2022/05/17 00:51:59;;;;;;;2.53;1.60;;;19.60;74.70;20.10;96862.00;;;;5074839;28;20653;-85
2022/05/17 00:54:27;;;;;;;2.47;1.80;;;19.60;74.60;20.10;96869.00;;;;5072901;28;20528;-86
2022/05/17 00:57:02;;;;;;;1.50;1.40;;;19.60;74.50;20.10;96866.00;;;;5059629;28;20287;-86
2022/05/17 00:59:30;;;;;;;2.40;1.53;;;19.60;74.70;20.10;96871.00;;;;5074862;28;20222;-86
2022/05/17 01:01:57;;;;;;;1.83;1.40;;;19.60;74.60;20.10;96869.00;;;;5075563;28;20660;-86
2022/05/17 01:04:27;;;;;;;1.57;1.47;;;19.60;74.50;20.10;96865.00;;;;5074756;28;20223;-86
2022/05/17 01:07:03;;;;;;;4.00;1.70;;;19.60;74.50;20.10;96862.00;;;;5074776;28;20196;-86
2022/05/17 01:09:30;;;;;;;1.97;1.40;;;19.60;74.60;20.10;96868.00;;;;5067208;28;20219;-86
2022/05/17 01:11:59;;;;;;;1.53;1.43;;;19.60;74.50;20.10;96861.00;;;;5072109;28;20677;-87
2022/05/17 01:17:10;;;;;;;1.77;1.50;;;19.60;74.60;20.10;96854.00;;;;5074253;28;20326;-86
2022/05/17 01:19:40;;;;;;;1.83;1.50;;;19.70;74.60;20.10;96864.00;;;;5074667;28;20224;-86
2022/05/17 01:22:08;;;;;;;1.67;1.57;;;19.60;74.60;20.10;96862.00;;;;5074339;28;20203;-86
2022/05/17 01:24:37;;;;;;;1.40;1.30;;;19.60;74.60;20.20;96856.00;;;;5065066;28;20314;-86
2022/05/17 01:27:12;;;;;;;1.60;1.50;;;19.60;74.60;20.10;96857.00;;;;5068179;28;20200;-86
2022/05/17 01:29:42;;;;;;;4.43;1.90;;;19.60;75.40;20.20;96857.00;;;;5074345;28;20212;-86
2022/05/17 01:32:12;;;;;;;1.57;1.47;;;19.60;74.60;20.20;96859.00;;;;5069434;28;20204;-86
2022/05/17 01:34:40;;;;;;;1.70;1.60;;;19.60;74.60;20.10;96857.00;;;;5064976;28;20204;-86
2022/05/17 01:37:10;;;;;;;1.67;1.50;;;19.60;74.70;20.20;96861.00;;;;5073814;28;20200;-85
2022/05/17 01:39:37;;;;;;;2.27;1.70;;;19.60;74.60;20.10;96860.00;;;;5074323;28;20224;-85
2022/05/17 01:42:07;;;;;;;1.70;1.60;;;19.60;74.50;20.10;96856.00;;;;5073886;28;20200;-86
2022/05/17 01:44:35;;;;;;;3.70;1.70;;;19.60;74.40;20.10;96860.00;;;;5074031;28;20228;-86
2022/05/17 01:47:02;;;;;;;2.23;1.67;;;19.60;74.50;20.10;96862.00;;;;5073917;28;20200;-86
2022/05/17 01:49:29;;;;;;;2.57;1.80;;;19.60;74.40;20.10;96860.00;;;;5067517;28;20216;-85
2022/05/17 01:51:56;;;;;;;3.20;2.03;;;19.60;74.40;20.10;96864.00;;;;5069397;28;20188;-86
2022/05/17 01:54:25;;;;;;;1.70;1.60;;;19.60;74.40;20.10;96864.00;;;;5073940;28;20211;-85
2022/05/17 01:56:52;;;;;;;2.00;1.80;;;19.60;74.40;20.10;96855.00;;;;5067440;28;20207;-86
2022/05/17 01:59:19;;;;;;;1.80;1.70;;;19.60;74.40;20.10;96855.00;;;;5066198;28;20220;-86
2022/05/17 02:01:46;;;;;;;1.70;1.60;;;19.60;74.40;20.10;96861.00;;;;5072833;28;20270;-86
2022/05/17 02:04:14;;;;;;;2.33;2.10;;;19.60;74.40;20.10;96861.00;;;;5073814;28;20223;-86
2022/05/17 02:06:42;;;;;;;1.97;1.70;;;19.60;74.50;20.10;96863.00;;;;5071758;28;20192;-86
2022/05/17 02:09:09;;;;;;;1.60;1.50;;;19.60;74.50;20.00;96861.00;;;;5063036;28;20717;-86
2022/05/17 02:11:38;;;;;;;1.43;1.33;;;19.60;74.50;20.00;96855.00;;;;5073711;28;20575;-86
2022/05/17 02:14:06;;;;;;;1.63;1.53;;;19.50;74.50;20.00;96858.00;;;;5073555;28;20242;-86
2022/05/17 02:16:37;;;;;;;2.10;1.80;;;19.50;74.50;20.00;96860.00;;;;5069443;28;20196;-85
2022/05/17 02:19:06;;;;;;;1.97;1.87;;;19.50;74.60;19.90;96853.00;;;;5056424;28;20257;-86
2022/05/17 02:21:33;;;;;;;2.53;1.83;;;19.50;74.50;19.90;96862.00;;;;5073780;28;20207;-85
2022/05/17 02:24:00;;;;;;;1.73;1.60;;;19.50;74.50;19.90;96863.00;;;;5073298;28;20220;-85
2022/05/17 02:26:27;;;;;;;1.80;1.70;;;19.50;74.50;19.90;96865.00;;;;5072112;28;20200;-86
2022/05/17 02:28:56;;;;;;;1.93;1.77;;;19.40;74.50;19.90;96862.00;;;;5072987;28;20192;-86
2022/05/17 02:31:23;;;;;;;2.10;1.90;;;19.50;74.70;19.90;96863.00;;;;5069204;28;20563;-86
2022/05/17 02:33:50;;;;;;;2.30;1.80;;;19.40;74.50;19.80;96866.00;;;;5061924;28;20184;-84
2022/05/17 02:36:18;;;;;;;2.40;1.90;;;19.40;74.50;19.80;96867.00;;;;5070266;28;20201;-85
2022/05/17 02:38:44;;;;;;;1.80;1.50;;;19.40;74.50;19.80;96868.00;;;;5069637;28;20197;-85
2022/05/17 02:41:12;;;;;;;2.00;1.80;;;19.40;74.60;19.80;96869.00;;;;5069091;28;20886;-86
2022/05/17 02:43:40;;;;;;;1.80;1.53;;;19.30;74.50;19.80;96868.00;;;;5073121;28;20612;-86
2022/05/17 02:46:08;;;;;;;2.20;1.87;;;19.30;74.40;19.80;96873.00;;;;5071230;28;20665;-86
2022/05/17 02:48:36;;;;;;;1.87;1.67;;;19.30;74.50;19.80;96874.00;;;;5070969;28;20194;-86
2022/05/17 02:51:12;;;;;;;2.47;2.00;;;19.30;74.40;19.80;96871.00;;;;5073201;28;20259;-86
2022/05/17 02:53:39;;;;;;;2.77;1.73;;;19.30;74.70;19.70;96871.00;;;;5058865;28;20206;-86
2022/05/17 02:56:07;;;;;;;2.47;1.70;;;19.30;74.50;19.70;96870.00;;;;5072515;28;20208;-83
2022/05/17 02:58:35;;;;;;;2.30;1.80;;;19.30;74.50;19.70;96874.00;;;;5073181;28;20616;-86
2022/05/17 03:01:03;;;;;;;2.37;1.80;;;19.30;74.50;19.70;96875.00;;;;5072610;28;20303;-86
2022/05/17 03:03:32;;;;;;;2.30;1.60;;;19.20;74.40;19.60;96879.00;;;;5067744;28;20188;-86
2022/05/17 03:06:00;;;;;;;2.10;2.00;;;19.20;74.40;19.60;96879.00;;;;5072140;28;20219;-86
2022/05/17 03:08:27;;;;;;;1.80;1.67;;;19.20;74.40;19.60;96873.00;;;;5072586;28;20196;-85
2022/05/17 03:10:54;;;;;;;2.27;1.80;;;19.20;74.50;19.60;96876.00;;;;5072721;28;20739;-85
2022/05/17 03:13:21;;;;;;;1.70;1.60;;;19.10;74.50;19.50;96879.00;;;;5072656;28;20207;-86
2022/05/17 03:15:51;;;;;;;2.23;1.63;;;19.10;74.50;19.50;96877.00;;;;5072163;28;20207;-86
2022/05/17 03:18:19;;;;;;;2.07;1.87;;;19.10;74.50;19.50;96882.00;;;;5062873;28;20188;-86
2022/05/17 03:20:49;;;;;;;2.20;1.63;;;19.10;74.50;19.50;96876.00;;;;5071303;28;20311;-86
2022/05/17 03:23:16;;;;;;;1.80;1.70;;;19.00;74.50;19.40;96878.00;;;;5071974;28;20657;-86
2022/05/17 03:25:44;;;;;;;2.50;1.90;;;19.00;74.50;19.40;96886.00;;;;5071991;28;20219;-86
2022/05/17 03:28:13;;;;;;;1.80;1.70;;;19.00;74.40;19.40;96887.00;;;;5072895;28;20739;-86
2022/05/17 03:30:41;;;;;;;2.57;1.80;;;19.00;74.50;19.40;96888.00;;;;5072321;28;20212;-86
2022/05/17 03:33:09;;;;;;;1.90;1.70;;;19.00;74.50;19.30;96887.00;;;;5072218;28;20203;-86
2022/05/17 03:35:37;;;;;;;3.87;1.80;;;18.90;74.40;19.30;96887.00;;;;5072291;28;20215;-86
2022/05/17 03:38:06;;;;;;;2.10;1.90;;;18.90;74.50;19.30;96888.00;;;;5072388;28;20657;-86
2022/05/17 03:40:33;;;;;;;2.40;1.90;;;18.90;74.70;19.30;96887.00;;;;5072240;28;20219;-86
2022/05/17 03:43:00;;;;;;;2.33;1.73;;;18.90;74.60;19.20;96887.00;;;;5072805;28;20246;-86
2022/05/17 03:45:27;;;;;;;2.27;1.63;;;18.80;74.60;19.20;96885.00;;;;5072340;28;20636;-86
2022/05/17 03:47:54;;;;;;;1.97;1.87;;;18.80;74.60;19.20;96885.00;;;;5072694;28;20200;-86
2022/05/17 03:50:22;;;;;;;2.73;1.90;;;18.80;74.70;19.10;96894.00;;;;5071485;28;20212;-86
2022/05/17 03:52:49;;;;;;;2.10;1.70;;;18.70;74.60;19.10;96898.00;;;;5072244;28;20290;-86
2022/05/17 03:55:17;;;;;;;2.23;1.93;;;18.70;74.70;19.10;96892.00;;;;5062560;28;20211;-86
2022/05/17 03:57:47;;;;;;;2.80;2.00;;;18.70;74.80;19.10;96891.00;;;;5064258;28;20196;-87
2022/05/17 04:00:15;;;;;;;2.63;1.63;;;18.70;74.90;19.00;96895.00;;;;5071442;28;20227;-86
2022/05/17 04:02:42;;;;;;;1.83;1.73;;;18.60;74.90;19.00;96896.00;;;;5072010;28;20685;-85
2022/05/17 04:05:10;;;;;;;3.53;2.20;;;18.60;75.00;19.00;96899.00;;;;5072092;28;20224;-86
2022/05/17 04:07:38;;;;;;;2.33;2.13;;;18.60;75.00;19.00;96896.00;;;;5072092;28;20200;-86
2022/05/17 04:10:07;;;;;;;2.37;1.80;;;18.60;75.10;18.90;96904.00;;;;5072061;28;20220;-86
2022/05/17 04:12:36;;;;;;;2.43;1.87;;;18.60;75.10;18.90;96903.00;;;;5072139;28;20253;-86
2022/05/17 04:15:03;;;;;;;3.10;2.20;;;18.50;75.10;18.90;96906.00;;;;5072050;28;20204;-86
2022/05/17 04:17:30;;;;;;;2.40;1.90;;;18.50;75.20;18.90;96908.00;;;;5072853;28;20203;-86
2022/05/17 04:19:59;;;;;;;4.20;2.03;;;18.50;76.10;18.90;96905.00;;;;5065449;28;20211;-86
2022/05/17 04:22:26;;;;;;;2.60;2.40;;;18.50;75.50;18.90;96901.00;;;;5072372;28;20203;-87
2022/05/17 04:24:54;;;;;;;2.57;2.33;;;18.50;76.40;18.90;96906.00;;;;5073761;28;20227;-86
2022/05/17 04:27:22;;;;;;;2.20;2.03;;;18.50;75.80;18.90;96911.00;;;;5075748;28;20200;-87
2022/05/17 04:29:51;;;;;;;3.13;2.50;;;18.50;75.90;19.00;96911.00;;;;5074625;28;20215;-87
2022/05/17 04:32:21;;;;;;;2.23;2.03;;;18.50;76.10;19.00;96917.00;;;;5075356;28;20204;-87
2022/05/17 04:34:48;;;;;;;2.23;1.80;;;18.60;76.20;19.10;96924.00;;;;5074968;28;20208;-86
2022/05/17 04:37:15;;;;;;;2.43;2.10;;;18.60;76.20;19.20;96927.00;;;;5075414;28;20212;-87
2022/05/17 04:39:42;;;;;;;2.57;2.30;;;18.60;76.20;19.20;96928.00;;;;5075203;28;20212;-88
2022/05/17 04:42:10;;;;;;;3.10;2.30;;;18.60;76.30;19.30;96928.00;;;;5074868;28;20195;-88
2022/05/17 04:44:37;;;;;;;3.30;2.00;;;18.70;76.40;19.40;96934.00;;;;5075116;28;20230;-89
2022/05/17 04:47:09;;;;;;;3.17;2.30;;;18.70;76.40;19.50;96936.00;;;;5075251;28;20200;-88
2022/05/17 04:49:37;;;;;;;4.43;2.20;;;18.80;76.50;19.50;96937.00;;;;5074780;28;20715;-88
2022/05/17 04:52:04;;;;;;;4.60;2.40;;;18.80;76.40;19.60;96933.00;;;;5075393;28;20195;-87
2022/05/17 04:54:32;;;;;;;2.47;2.27;;;18.90;76.30;19.60;96944.00;;;;5074991;28;20203;-87
2022/05/17 04:56:59;;;;;;;4.30;2.50;;;18.90;76.20;19.70;96935.00;;;;5075582;28;20192;-88
2022/05/17 04:59:26;;;;;;;2.53;2.03;;;18.80;76.10;19.70;96942.00;;;;5074692;28;20207;-87
2022/05/17 05:01:53;;;;;;;2.37;2.07;;;19.00;76.10;19.70;96937.00;;;;5074439;28;20196;-87
2022/05/17 05:04:21;;;;;;;3.33;2.50;;;19.10;76.10;19.80;96945.00;;;;5073796;28;20204;-87
2022/05/17 05:06:48;;;;;;;2.60;2.20;;;19.10;76.20;19.80;96941.00;;;;5073787;28;20207;-86
2022/05/17 05:09:15;;;;;;;2.53;2.33;;;19.20;76.10;19.90;96945.00;;;;5074873;28;20219;-87
2022/05/17 05:11:42;;;;;;;5.87;2.50;;;19.20;76.00;19.90;96947.00;;;;5067068;28;20279;-87
2022/05/17 05:14:10;;;;;;;3.27;2.60;;;19.30;75.80;19.90;96956.00;;;;5073339;28;20198;-86
2022/05/17 05:16:38;;;;;;;2.67;2.47;;;19.30;75.80;20.00;96953.00;;;;5054821;28;20571;-86
2022/05/17 05:19:05;;;;;;;3.30;2.70;;;19.30;75.70;20.00;96954.00;;;;5054525;28;20205;-87
2022/05/17 05:21:34;;;;;;;3.13;2.83;;;19.40;75.70;20.00;96958.00;;;;5063280;28;20195;-87
2022/05/17 05:24:04;;;;;;;2.80;2.60;;;19.40;75.70;20.10;96954.00;;;;5074522;28;20227;-87
2022/05/17 05:26:32;;;;;;;3.17;2.60;;;19.40;75.60;20.10;96959.00;;;;5073651;28;20762;-88
2022/05/17 05:28:59;;;;;;;2.40;2.20;;;19.50;75.70;20.10;96955.00;;;;5074245;28;20574;-88
2022/05/17 05:31:27;;;;;;;2.63;2.43;;;19.50;75.60;20.20;96965.00;;;;5074602;28;20200;-87
2022/05/17 05:33:54;;;;;;;3.43;2.50;;;19.60;75.60;20.20;96970.00;;;;5074370;28;20211;-88
2022/05/17 05:36:22;;;;;;;3.30;2.67;;;19.60;75.50;20.30;96966.00;;;;5072285;28;20217;-88
2022/05/17 05:38:51;;;;;;;2.87;2.30;;;19.60;75.50;20.30;96971.00;;;;5070385;28;20283;-88
2022/05/17 05:41:18;;;;;;;3.00;2.43;;;19.70;75.40;20.40;96967.00;;;;5054049;28;20201;-88
2022/05/17 05:43:45;;;;;;;2.67;2.47;;;19.70;75.30;20.40;96967.00;;;;5054341;28;20204;-87
2022/05/17 05:46:12;;;;;;;3.87;2.60;;;19.70;76.00;20.50;96972.00;;;;5070563;28;20223;-87
2022/05/17 05:48:39;;;;;;;2.33;2.13;;;19.70;75.30;20.50;96976.00;;;;5074128;28;20196;-87
2022/05/17 05:51:06;;;;;;;2.80;2.60;;;19.80;76.10;20.60;96973.00;;;;5066509;28;20232;-88
2022/05/17 05:53:33;;;;;;;4.33;2.53;;;19.80;75.40;20.60;96984.00;;;;5065024;28;20304;-87
2022/05/17 05:56:02;;;;;;;2.73;2.37;;;19.90;75.20;20.70;96985.00;;;;5057368;28;20680;-88
2022/05/17 05:58:30;;;;;;;3.17;2.27;;;19.90;75.10;20.70;96992.00;;;;5053807;28;20196;-87
2022/05/17 06:00:57;;;;;;;3.50;2.37;;;20.00;75.10;20.80;97002.00;;;;5062059;28;20220;-86
2022/05/17 06:03:25;;;;;;;2.73;2.53;;;20.10;75.10;20.80;96999.00;;;;5073732;28;20223;-88
2022/05/17 06:05:52;;;;;;;4.27;2.40;;;20.00;74.80;20.80;96997.00;;;;5072424;28;20226;-87
2022/05/17 06:08:19;;;;;;;3.23;2.43;;;20.10;74.70;20.80;97000.00;;;;5073383;28;20199;-88
2022/05/17 06:10:47;;;;;;;2.60;2.40;;;20.10;74.60;20.80;97000.00;;;;5067103;28;20587;-87
2022/05/17 06:13:16;;;;;;;4.17;2.67;;;20.10;74.60;20.80;97008.00;;;;5065458;28;20208;-87
2022/05/17 06:15:45;;;;;;;3.47;2.80;;;20.20;74.60;20.90;97003.00;;;;5069411;28;20200;-88
2022/05/17 06:18:14;;;;;;;3.30;3.00;;;20.20;74.70;20.90;96988.00;;;;5073592;28;20271;-87
2022/05/17 06:20:41;;;;;;;2.83;2.63;;;20.20;74.80;21.00;96997.00;;;;5070432;28;20226;-87
2022/05/17 06:23:10;;;;;;;3.50;3.00;;;20.30;74.80;21.00;96993.00;;;;5073432;28;20214;-88
2022/05/17 06:25:37;;;;;;;3.03;2.83;;;20.30;74.70;21.00;96996.00;;;;5056447;28;20252;-87
2022/05/17 06:28:05;;;;;;;4.53;2.67;;;20.30;74.60;21.00;96993.00;;;;5073302;28;20207;-88
2022/05/17 06:30:34;;;;;;;3.50;3.17;;;20.30;74.50;21.00;96996.00;;;;5067973;28;20645;-88
2022/05/17 06:33:01;;;;;;;3.30;2.60;;;20.40;74.50;21.00;96982.00;;;;5072990;28;20206;-88
2022/05/17 06:35:28;;;;;;;3.73;3.30;;;20.30;74.30;21.00;96985.00;;;;5072751;28;20731;-87
2022/05/17 06:37:56;;;;;;;3.30;3.00;;;20.40;74.40;21.00;96985.00;;;;5073077;28;20200;-88
2022/05/17 06:40:22;;;;;;;4.73;2.57;;;20.40;74.30;21.10;96998.00;;;;5072639;28;20216;-90
2022/05/17 06:42:50;;;;;;;3.73;3.20;;;20.50;75.10;21.10;96988.00;;;;5052965;28;20558;-90
2022/05/17 06:45:17;;;;;;;3.83;3.37;;;20.50;74.40;21.10;96996.00;;;;5052476;28;20229;-90
2022/05/17 06:47:45;;;;;;;3.83;3.20;;;20.50;74.40;21.10;96989.00;;;;5069505;28;20192;-90
2022/05/17 06:50:12;;;;;;;3.53;3.20;;;20.50;74.50;21.20;96985.00;;;;5072979;28;20682;-91
2022/05/17 06:52:39;;;;;;;3.97;3.20;;;20.60;74.60;21.20;96989.00;;;;5072800;28;20525;-90
2022/05/17 06:55:07;;;;;;;3.63;3.23;;;20.60;74.50;21.20;96992.00;;;;5061554;28;20210;-90
2022/05/17 06:57:34;;;;;;;5.03;3.73;;;20.60;74.60;21.30;96981.00;;;;5064913;28;20204;-90
2022/05/17 07:00:05;;;;;;;4.43;3.60;;;20.70;74.60;21.30;96990.00;;;;5059229;28;20216;-89
2022/05/17 07:02:32;;;;;;;3.93;3.53;;;20.70;74.40;21.40;96997.00;;;;5070208;28;20208;-90
2022/05/17 07:05:00;;;;;;;4.37;3.17;;;20.80;74.50;21.50;96998.00;;;;5064705;28;20208;-90
2022/05/17 07:07:28;;;;;;;4.30;3.90;;;20.80;74.60;21.60;97001.00;;;;5072410;28;20218;-90
2022/05/17 07:15:24;;;;;;;4.93;3.23;;;21.20;74.70;22.10;96991.00;;;;5072613;28;20690;-90
2022/05/17 07:17:51;;;;;;;6.50;3.70;;;21.30;74.40;22.30;97004.00;;;;5072533;28;20210;-91
2022/05/17 07:20:23;;;;;;;3.80;3.50;;;21.40;74.20;22.50;96998.00;;;;5059617;28;20224;-91
2022/05/17 07:22:50;;;;;;;3.40;3.10;;;21.60;73.90;22.70;97001.00;;;;5072972;28;20202;-89
2022/05/17 07:25:17;;;;;;;4.70;3.93;;;21.70;73.80;22.90;97005.00;;;;5092398;28;20257;-89
2022/05/17 07:27:44;;;;;;;4.20;3.83;;;21.90;73.70;23.10;96996.00;;;;5088509;28;20187;-89
2022/05/17 07:30:13;;;;;;;3.70;3.40;;;22.10;73.60;23.30;97012.00;;;;5094105;28;20282;-89
2022/05/17 07:32:40;;;;;;;3.57;3.17;;;22.20;73.00;23.50;97010.00;;;;5089656;28;20279;-91
2022/05/17 07:35:08;;;;;;;5.77;3.50;;;22.40;72.90;23.70;97005.00;;;;5075972;28;20214;-90
2022/05/17 07:37:37;;;;;;;4.33;3.53;;;22.60;72.50;24.00;97010.00;;;;5073615;28;20190;-90
2022/05/17 07:40:06;;;;;;;4.33;3.50;;;22.80;72.00;24.20;97016.00;;;;5072357;28;20695;-90
2022/05/17 07:42:33;;;;;;;4.23;3.47;;;23.00;71.50;24.40;97015.00;;;;5067550;28;20201;-91
2022/05/17 07:45:00;;;;;;;3.10;2.80;;;23.20;70.70;24.50;97024.00;;;;5071913;28;20283;-91
2022/05/17 07:47:29;;;;;;;4.87;3.93;;;23.30;70.30;24.70;97014.00;;;;5063868;28;20566;-90
2022/05/17 07:49:56;;;;;;;3.93;3.63;;;23.50;69.00;24.80;97018.00;;;;5070180;28;20747;-91
2022/05/17 07:52:23;;;;;;;5.03;4.40;;;23.60;68.90;24.90;97014.00;;;;5071882;28;20609;-90
2022/05/17 07:54:52;;;;;;;4.17;3.77;;;23.70;68.00;25.10;97020.00;;;;5071123;28;20199;-91
2022/05/17 07:57:19;;;;;;;4.70;4.17;;;23.90;67.80;25.10;97018.00;;;;5057839;28;21151;-90
2022/05/17 07:59:46;;;;;;;3.90;3.53;;;24.00;67.10;25.10;97023.00;;;;5073834;28;20233;-89
2022/05/17 08:02:14;;;;;;;4.70;3.50;;;24.10;66.70;25.20;97015.00;;;;5075312;28;20295;-89
2022/05/17 08:04:41;;;;;;;5.27;3.73;;;24.10;66.40;25.40;97020.00;;;;5075444;28;20200;-90
2022/05/17 08:07:10;;;;;;;4.83;4.43;;;24.20;66.30;25.60;97018.00;;;;5075810;28;20554;-91
2022/05/17 08:09:38;;;;;;;4.20;3.90;;;24.30;66.20;25.90;97025.00;;;;5075564;28;20223;-90
2022/05/17 08:12:10;;;;;;;4.40;4.00;;;24.40;66.20;25.90;97026.00;;;;5074571;28;20207;-89
2022/05/17 08:14:40;;;;;;;5.43;4.10;;;24.60;65.60;26.10;97024.00;;;;5075785;28;20250;-90
2022/05/17 08:17:09;;;;;;;4.17;3.87;;;24.70;65.00;26.30;97018.00;;;;5073958;28;20214;-88
2022/05/17 08:19:37;;;;;;;5.70;4.67;;;24.70;65.10;26.50;97011.00;;;;5075191;28;20223;-89
2022/05/17 08:22:06;;;;;;;5.10;4.60;;;24.90;65.50;26.70;97017.00;;;;5075690;28;20275;-88
2022/05/17 08:27:31;;;;;;;4.17;3.87;;;25.10;64.00;26.80;97020.00;;;;5075812;28;20215;-87
2022/05/17 08:27:36;;;;;;;5.30;4.50;;;25.20;63.40;26.80;97017.00;;;;5075735;28;20614;-87
2022/05/17 08:30:08;;;;;;;4.97;4.47;;;25.20;62.70;27.00;97019.00;;;;5074468;28;20548;-87
2022/05/17 08:35:20;;;;;;;4.53;3.77;;;25.40;63.10;27.20;97020.00;;;;5074229;28;20215;-87
2022/05/17 08:37:48;;;;;;;4.37;3.97;;;25.50;62.90;27.50;97023.00;;;;5072049;28;20214;-87
2022/05/17 08:40:22;;;;;;;4.23;3.93;;;25.60;62.20;27.90;97027.00;;;;5070266;28;20212;-87
2022/05/17 08:43:09;;;;;;;5.00;3.40;;;25.80;61.80;28.10;97033.00;;;;5062547;28;20197;-87
2022/05/17 08:45:49;;;;;;;4.67;4.07;;;26.00;61.40;28.30;97020.00;;;;5073468;28;20675;-88
2022/05/17 08:48:18;;;;;;;4.00;3.60;;;26.10;61.40;28.80;97016.00;;;;5059970;28;20193;-88
2022/05/17 08:50:49;;;;;;;6.73;3.10;;;26.40;61.00;29.10;97026.00;;;;5071609;28;20223;-87
2022/05/17 08:53:20;;;;;;;3.67;3.05;;;26.60;60.30;29.40;97031.00;;;;5096729;22;20234;-83
2022/05/17 08:55:51;;;;;;;3.78;3.30;;;26.80;59.50;29.40;97031.00;;;;5070734;28;20657;-83
2022/05/17 08:58:24;;;;;;;2.75;2.55;;;27.00;59.10;29.50;97017.00;;;;5059420;28;20232;-83
2022/05/17 09:00:59;;;;;;;4.15;2.53;;;27.30;59.00;29.50;97033.00;;;;5050332;28;20232;-83
2022/05/17 09:03:41;;;;;;;3.22;2.58;;;27.40;58.50;29.50;97027.00;;;;5047307;28;20273;-83
2022/05/17 09:06:21;;;;;;;3.92;2.72;;;27.50;56.70;29.30;97035.00;;;;5048058;28;20227;-83
2022/05/17 09:08:57;;;;;;;3.17;2.88;;;27.60;55.90;29.10;97030.00;;;;5045706;28;20229;-83
2022/05/17 09:11:32;;;;;;;4.20;3.05;;;27.60;55.60;28.80;97036.00;;;;5046936;28;20201;-83
2022/05/17 09:14:08;;;;;;;3.55;3.25;;;27.50;55.60;28.60;97030.00;;;;5048490;28;20231;-82
2022/05/17 09:16:39;;;;;;;3.35;3.03;;;27.50;55.50;28.80;97029.00;;;;5046336;28;20216;-85
2022/05/17 09:19:07;;;;;;;2.75;2.30;;;27.60;56.00;29.00;97029.00;;;;5050691;28;20217;-83
2022/05/17 09:21:37;;;;;;;3.95;2.50;;;27.80;56.10;29.30;97034.00;;;;5051964;28;20709;-86
2022/05/17 09:24:12;;;;;;;2.45;2.15;;;28.10;56.10;29.70;97026.00;;;;5049635;28;20279;-84
2022/05/17 09:26:41;;;;;;;2.08;1.90;;;28.40;55.80;30.10;97028.00;;;;5040270;28;20221;-84
2022/05/17 09:29:20;;;;;;;2.47;1.88;;;28.90;55.80;30.40;97031.00;;;;5048331;28;20200;-85
2022/05/17 09:32:02;;;;;;;3.38;2.47;;;29.30;53.70;30.50;97028.00;;;;5046747;28;20205;-84
2022/05/17 09:34:34;;;;;;;2.35;2.15;;;29.50;52.50;30.30;97024.00;;;;5047628;28;20233;-84
2022/05/17 09:37:07;;;;;;;2.45;2.25;;;29.60;52.00;30.10;97029.00;;;;5047152;28;20209;-84
2022/05/17 09:39:37;;;;;;;2.30;2.20;;;29.60;51.40;30.10;97023.00;;;;5049788;28;20583;-84
2022/05/17 09:42:10;;;;;;;3.10;2.38;;;29.60;52.00;30.40;97033.00;;;;5047589;28;20547;-84
2022/05/17 09:44:45;;;;;;;2.72;2.17;;;29.80;52.60;30.70;97026.00;;;;5047443;28;20291;-84
2022/05/17 09:47:26;;;;;;;2.83;2.05;;;30.20;53.10;30.80;97032.00;;;;5047450;28;20250;-84
2022/05/17 09:53:02;;;;;;;2.80;2.33;;;30.40;50.10;30.60;97036.00;;;;5044997;28;20209;-84
2022/05/17 09:55:32;;;;;;;3.33;3.03;;;30.40;48.80;30.40;97019.00;;;;5048155;28;20462;-84
2022/05/17 09:58:04;;;;;;;2.70;2.50;;;30.30;49.70;30.40;97025.00;;;;5045593;28;20239;-84
2022/05/17 10:00:41;;;;;;;2.97;2.78;;;30.30;50.60;30.50;97028.00;;;;5050157;28;20215;-84
2022/05/17 10:03:36;;;;;;;2.70;2.50;;;30.50;50.20;30.80;97026.00;;;;5049005;28;21181;-85
2022/05/17 10:06:15;;;;;;;2.75;2.42;;;30.70;49.50;31.00;97018.00;;;;5053304;28;20591;-85
2022/05/17 10:09:02;;;;;;;3.88;2.22;;;31.00;50.20;31.10;97028.00;;;;5053520;28;20203;-84
2022/05/17 10:11:52;;;;;;;4.13;2.47;;;31.10;49.10;31.10;97025.00;;;;5053326;28;20634;-84
2022/05/17 10:14:34;;;;;;;2.80;2.60;;;31.30;46.90;31.00;97034.00;;;;5049521;28;20196;-81
2022/05/17 10:17:13;;;;;;;2.28;2.10;;;31.30;47.10;30.80;97027.00;;;;5060189;28;20250;-82
2022/05/17 10:19:49;;;;;;;2.53;2.33;;;31.20;46.70;30.70;97026.00;;;;5061724;28;20192;-83
2022/05/17 10:22:26;;;;;;;1.90;1.80;;;31.10;45.60;30.60;97029.00;;;;5054044;28;20256;-82
2022/05/17 10:25:02;;;;;;;2.35;1.67;;;31.00;46.60;30.60;97022.00;;;;5054400;28;20192;-83
2022/05/17 10:27:37;;;;;;;2.50;1.90;;;31.00;46.30;30.60;97021.00;;;;5059164;28;20583;-83
2022/05/17 10:30:11;;;;;;;1.80;1.70;;;31.00;45.50;30.60;97012.00;;;;5049405;28;20413;-83
2022/05/17 10:32:50;;;;;;;1.70;1.60;;;31.00;45.80;30.60;97014.00;;;;5042178;28;20192;-83
2022/05/17 10:35:28;;;;;;;2.17;1.77;;;30.90;46.10;30.60;97016.00;;;;5050165;28;20287;-83
2022/05/17 10:38:02;;;;;;;2.88;2.42;;;30.90;45.90;30.60;97016.00;;;;5059655;28;20212;-83
2022/05/17 10:40:33;;;;;;;2.05;1.55;;;30.90;45.20;30.60;97014.00;;;;5060756;28;20196;-83
2022/05/17 10:43:02;;;;;;;1.80;1.70;;;30.90;45.20;30.50;97012.00;;;;5060246;28;20267;-83
2022/05/17 10:45:33;;;;;;;2.03;1.83;;;30.90;45.30;30.50;97007.00;;;;5059135;28;20241;-83
2022/05/17 10:48:19;;;;;;;2.50;1.80;;;30.80;46.00;30.50;97007.00;;;;5049143;28;20233;-84
2022/05/17 10:51:01;;;;;;;2.63;2.30;;;30.80;44.90;30.40;97006.00;;;;5046459;28;20552;-84
2022/05/17 10:53:49;;;;;;;2.00;1.80;;;30.60;44.50;30.30;97004.00;;;;5058817;28;20210;-83
2022/05/17 10:56:32;;;;;;;3.38;2.28;;;30.50;44.00;30.10;96996.00;;;;5057130;28;20271;-83
2022/05/17 10:59:12;;;;;;;2.30;2.10;;;30.30;44.30;29.90;97002.00;;;;5042963;28;20284;-84
2022/05/17 11:01:52;;;;;;;2.10;2.00;;;30.00;44.70;29.70;97006.00;;;;5054889;28;20228;-83
2022/05/17 11:04:59;;;;;;;1.95;1.83;;;29.70;45.00;29.40;97001.00;;;;5055790;28;20201;-83
2022/05/17 11:07:50;;;;;;;2.00;1.90;;;29.50;44.60;29.20;96988.00;;;;5049826;28;20239;-84
2022/05/17 11:10:32;;;;;;;4.07;1.88;;;29.20;45.90;29.10;97000.00;;;;5059176;28;20193;-83
2022/05/17 11:13:14;;;;;;;2.33;2.13;;;29.00;46.30;29.00;97001.00;;;;5055806;28;20236;-83
2022/05/17 11:15:48;;;;;;;2.38;2.17;;;28.80;45.80;28.90;96999.00;;;;5055209;28;20189;-83
2022/05/17 11:18:26;;;;;;;2.20;2.00;;;28.60;46.20;28.70;97003.00;;;;5041939;28;20268;-83
2022/05/17 11:21:02;;;;;;;3.63;2.25;;;28.50;47.00;28.60;96999.00;;;;5043921;28;20261;-83
2022/05/17 11:23:50;;;;;;;2.50;1.77;;;28.20;47.10;28.50;96997.00;;;;5041270;28;20209;-84
2022/05/17 11:27:09;;;;;;;2.20;2.00;;;28.10;46.90;28.40;96993.00;;;;5047666;28;20201;-85